sensor_id;sensor_type;location;lat;lon;timestamp;pressure;altitude;pressure_sealevel;temperature;humidity
71966;BME280;59836;52.132;5.442;2022-07-24T00:01:07;101966.13;;;16.90;81.75
71966;BME280;59836;52.132;5.442;2022-07-24T00:03:34;101976.28;;;16.89;81.84
71966;BME280;59836;52.132;5.442;2022-07-24T00:06:01;101961.22;;;16.87;81.87
71966;BME280;59836;52.132;5.442;2022-07-24T00:08:28;101964.28;;;16.85;81.78
71966;BME280;59836;52.132;5.442;2022-07-24T00:10:54;101964.28;;;16.85;81.84
71966;BME280;59836;52.132;5.442;2022-07-24T00:13:21;101962.38;;;16.80;82.30
71966;BME280;59836;52.132;5.442;2022-07-24T00:15:47;101959.09;;;16.78;82.05
71966;BME280;59836;52.132;5.442;2022-07-24T00:18:14;101953.66;;;16.73;82.16
71966;BME280;59836;52.132;5.442;2022-07-24T00:20:40;101959.97;;;16.74;82.06
71966;BME280;59836;52.132;5.442;2022-07-24T00:23:07;101959.44;;;16.72;82.06
71966;BME280;59836;52.132;5.442;2022-07-24T00:25:33;101951.78;;;16.68;82.15
71966;BME280;59836;52.132;5.442;2022-07-24T00:28:00;101956.41;;;16.68;82.05
71966;BME280;59836;52.132;5.442;2022-07-24T00:30:32;101960.25;;;16.67;81.99
71966;BME280;59836;52.132;5.442;2022-07-24T00:32:58;101959.72;;;16.65;82.07
71966;BME280;59836;52.132;5.442;2022-07-24T00:35:25;101955.34;;;16.64;81.96
71966;BME280;59836;52.132;5.442;2022-07-24T00:37:51;101956.97;;;16.65;82.21
71966;BME280;59836;52.132;5.442;2022-07-24T00:40:19;101962.50;;;16.60;82.31
71966;BME280;59836;52.132;5.442;2022-07-24T00:42:45;101963.59;;;16.59;82.28
71966;BME280;59836;52.132;5.442;2022-07-24T00:45:12;101955.69;;;16.57;82.25
71966;BME280;59836;52.132;5.442;2022-07-24T00:47:52;101960.31;;;16.57;82.18
71966;BME280;59836;52.132;5.442;2022-07-24T00:50:25;101958.69;;;16.56;82.23
71966;BME280;59836;52.132;5.442;2022-07-24T00:52:52;101958.69;;;16.56;82.45
71966;BME280;59836;52.132;5.442;2022-07-24T00:55:19;101945.56;;;16.52;82.26
71966;BME280;59836;52.132;5.442;2022-07-24T00:57:46;101952.69;;;16.48;82.46
71966;BME280;59836;52.132;5.442;2022-07-24T01:00:17;101946.41;;;16.48;82.28
71966;BME280;59836;52.132;5.442;2022-07-24T01:02:44;101962.53;;;16.49;82.53
71966;BME280;59836;52.132;5.442;2022-07-24T01:05:11;101951.31;;;16.51;82.19
71966;BME280;59836;52.132;5.442;2022-07-24T01:07:38;101951.59;;;16.49;82.48
71966;BME280;59836;52.132;5.442;2022-07-24T01:10:05;101951.06;;;16.47;82.39
71966;BME280;59836;52.132;5.442;2022-07-24T01:12:33;101943.94;;;16.46;82.54
71966;BME280;59836;52.132;5.442;2022-07-24T01:15:00;101939.56;;;16.45;82.53
71966;BME280;59836;52.132;5.442;2022-07-24T01:17:31;101945.34;;;16.44;82.47
71966;BME280;59836;52.132;5.442;2022-07-24T01:19:58;101947.78;;;16.45;82.43
71966;BME280;59836;52.132;5.442;2022-07-24T01:22:25;101939.88;;;16.44;82.48
71966;BME280;59836;52.132;5.442;2022-07-24T01:24:53;101943.72;;;16.43;82.43
71966;BME280;59836;52.132;5.442;2022-07-24T01:27:21;101942.91;;;16.42;82.50
71966;BME280;59836;52.132;5.442;2022-07-24T01:29:48;101935.25;;;16.39;82.62
71966;BME280;59836;52.132;5.442;2022-07-24T01:32:14;101936.88;;;16.40;82.97
71966;BME280;59836;52.132;5.442;2022-07-24T01:34:41;101935.81;;;16.36;82.74
71966;BME280;59836;52.132;5.442;2022-07-24T01:37:07;101930.91;;;16.33;83.09
71966;BME280;59836;52.132;5.442;2022-07-24T01:39:34;101932.00;;;16.32;82.78
71966;BME280;59836;52.132;5.442;2022-07-24T01:42:00;101927.63;;;16.31;82.92
71966;BME280;59836;52.132;5.442;2022-07-24T01:44:27;101926.00;;;16.30;82.91
71966;BME280;59836;52.132;5.442;2022-07-24T01:46:53;101927.09;;;16.29;83.09
71966;BME280;59836;52.132;5.442;2022-07-24T01:49:20;101930.38;;;16.26;83.07
71966;BME280;59836;52.132;5.442;2022-07-24T01:51:46;101926.00;;;16.25;83.11
71966;BME280;59836;52.132;5.442;2022-07-24T01:54:13;101927.69;;;16.20;83.10
71966;BME280;59836;52.132;5.442;2022-07-24T01:56:39;101921.38;;;16.20;82.99
71966;BME280;59836;52.132;5.442;2022-07-24T01:59:06;101929.56;;;16.20;83.21
71966;BME280;59836;52.132;5.442;2022-07-24T02:01:35;101918.94;;;16.18;83.05
71966;BME280;59836;52.132;5.442;2022-07-24T02:04:02;101921.66;;;16.18;83.12
71966;BME280;59836;52.132;5.442;2022-07-24T02:06:29;101916.19;;;16.18;82.98
71966;BME280;59836;52.132;5.442;2022-07-24T02:08:55;101925.75;;;16.16;82.89
71966;BME280;59836;52.132;5.442;2022-07-24T02:11:21;101930.47;;;16.10;83.29
71966;BME280;59836;52.132;5.442;2022-07-24T02:13:48;101941.97;;;16.07;83.49
71966;BME280;59836;52.132;5.442;2022-07-24T02:16:14;101938.13;;;16.08;83.56
71966;BME280;59836;52.132;5.442;2022-07-24T02:18:41;101931.03;;;16.07;83.36
71966;BME280;59836;52.132;5.442;2022-07-24T02:21:07;101929.38;;;16.06;83.32
71966;BME280;59836;52.132;5.442;2022-07-24T02:23:34;101928.31;;;16.02;83.28
71966;BME280;59836;52.132;5.442;2022-07-24T02:26:00;101926.66;;;16.01;83.12
71966;BME280;59836;52.132;5.442;2022-07-24T02:28:26;101932.13;;;16.01;83.20
71966;BME280;59836;52.132;5.442;2022-07-24T02:30:53;101925.03;;;16.00;83.39
71966;BME280;59836;52.132;5.442;2022-07-24T02:33:20;101919.56;;;16.00;83.59
71966;BME280;59836;52.132;5.442;2022-07-24T02:35:47;101919.00;;;15.98;83.20
71966;BME280;59836;52.132;5.442;2022-07-24T02:38:13;101919.00;;;15.98;83.38
71966;BME280;59836;52.132;5.442;2022-07-24T02:40:40;101914.63;;;15.97;83.41
71966;BME280;59836;52.132;5.442;2022-07-24T02:43:06;101904.50;;;15.97;83.23
71966;BME280;59836;52.132;5.442;2022-07-24T02:45:33;101904.50;;;15.97;83.48
71966;BME280;59836;52.132;5.442;2022-07-24T02:47:59;101903.69;;;15.97;83.47
71966;BME280;59836;52.132;5.442;2022-07-24T02:50:31;101904.50;;;15.97;83.42
71966;BME280;59836;52.132;5.442;2022-07-24T02:52:59;101908.34;;;15.96;83.28
71966;BME280;59836;52.132;5.442;2022-07-24T02:55:25;101903.69;;;15.97;83.39
71966;BME280;59836;52.132;5.442;2022-07-24T02:57:55;101901.22;;;15.95;83.42
71966;BME280;59836;52.132;5.442;2022-07-24T03:00:22;101901.22;;;15.95;83.29
71966;BME280;59836;52.132;5.442;2022-07-24T03:02:48;101898.22;;;15.97;83.47
71966;BME280;59836;52.132;5.442;2022-07-24T03:05:15;101902.88;;;15.96;83.35
71966;BME280;59836;52.132;5.442;2022-07-24T03:07:42;101902.06;;;15.96;83.38
71966;BME280;59836;52.132;5.442;2022-07-24T03:10:10;101895.50;;;15.97;83.35
71966;BME280;59836;52.132;5.442;2022-07-24T03:12:37;101896.59;;;15.96;83.53
71966;BME280;59836;52.132;5.442;2022-07-24T03:15:04;101897.16;;;15.92;83.36
71966;BME280;59836;52.132;5.442;2022-07-24T03:17:31;101887.31;;;15.91;83.48
71966;BME280;59836;52.132;5.442;2022-07-24T03:19:59;101886.75;;;15.89;83.71
71966;BME280;59836;52.132;5.442;2022-07-24T03:22:25;101885.66;;;15.85;83.97
71966;BME280;59836;52.132;5.442;2022-07-24T03:24:52;101888.16;;;15.87;83.68
71966;BME280;59836;52.132;5.442;2022-07-24T03:27:18;101883.50;;;15.87;83.77
71966;BME280;59836;52.132;5.442;2022-07-24T03:29:45;101874.72;;;15.85;83.55
71966;BME280;59836;52.132;5.442;2022-07-24T03:32:12;101877.75;;;15.84;83.69
71966;BME280;59836;52.132;5.442;2022-07-24T03:34:38;101881.28;;;15.84;83.42
71966;BME280;59836;52.132;5.442;2022-07-24T03:37:05;101871.44;;;15.83;83.55
71966;BME280;59836;52.132;5.442;2022-07-24T03:39:31;101865.16;;;15.83;83.50
71966;BME280;59836;52.132;5.442;2022-07-24T03:41:58;101867.91;;;15.83;83.84
71966;BME280;59836;52.132;5.442;2022-07-24T03:44:24;101872.53;;;15.82;83.80
71966;BME280;59836;52.132;5.442;2022-07-24T03:46:51;101873.38;;;15.83;83.80
71966;BME280;59836;52.132;5.442;2022-07-24T03:49:17;101874.16;;;15.83;83.72
71966;BME280;59836;52.132;5.442;2022-07-24T03:51:44;101879.38;;;15.85;83.51
71966;BME280;59836;52.132;5.442;2022-07-24T03:54:13;101880.75;;;15.82;83.54
71966;BME280;59836;52.132;5.442;2022-07-24T03:56:39;101881.84;;;15.81;84.11
71966;BME280;59836;52.132;5.442;2022-07-24T03:59:05;101880.47;;;15.84;83.93
71966;BME280;59836;52.132;5.442;2022-07-24T04:01:33;101881.28;;;15.84;83.93
71966;BME280;59836;52.132;5.442;2022-07-24T04:03:59;101876.09;;;15.83;83.93
71966;BME280;59836;52.132;5.442;2022-07-24T04:06:32;101881.28;;;15.84;83.99
71966;BME280;59836;52.132;5.442;2022-07-24T04:08:59;101878.53;;;15.84;83.80
71966;BME280;59836;52.132;5.442;2022-07-24T04:11:27;101878.00;;;15.87;83.99
71966;BME280;59836;52.132;5.442;2022-07-24T04:13:53;101881.59;;;15.88;83.84
71966;BME280;59836;52.132;5.442;2022-07-24T04:16:20;101888.97;;;15.87;83.82
71966;BME280;59836;52.132;5.442;2022-07-24T04:18:47;101878.53;;;15.84;83.92
71966;BME280;59836;52.132;5.442;2022-07-24T04:21:14;101879.09;;;15.81;83.62
71966;BME280;59836;52.132;5.442;2022-07-24T04:23:40;101872.84;;;15.81;84.19
71966;BME280;59836;52.132;5.442;2022-07-24T04:26:07;101866.53;;;15.80;84.17
71966;BME280;59836;52.132;5.442;2022-07-24T04:28:34;101876.66;;;15.79;84.29
71966;BME280;59836;52.132;5.442;2022-07-24T04:31:01;101877.47;;;15.80;84.32
71966;BME280;59836;52.132;5.442;2022-07-24T04:33:28;101886.22;;;15.82;84.10
71966;BME280;59836;52.132;5.442;2022-07-24T04:35:55;101891.13;;;15.85;84.06
71966;BME280;59836;52.132;5.442;2022-07-24T04:38:21;101896.06;;;15.88;84.26
71966;BME280;59836;52.132;5.442;2022-07-24T04:40:48;101898.25;;;15.91;84.50
71966;BME280;59836;52.132;5.442;2022-07-24T04:43:14;101897.94;;;15.93;84.58
71966;BME280;59836;52.132;5.442;2022-07-24T04:45:41;101885.66;;;15.96;84.52
71966;BME280;59836;52.132;5.442;2022-07-24T04:48:07;101884.25;;;15.98;84.44
71966;BME280;59836;52.132;5.442;2022-07-24T04:50:34;101882.88;;;16.01;84.57
71966;BME280;59836;52.132;5.442;2022-07-24T04:53:00;101879.31;;;16.00;84.59
71966;BME280;59836;52.132;5.442;2022-07-24T04:55:27;101886.16;;;16.03;84.63
71966;BME280;59836;52.132;5.442;2022-07-24T04:57:54;101882.88;;;16.06;84.45
71966;BME280;59836;52.132;5.442;2022-07-24T05:00:20;101877.94;;;16.08;84.53
71966;BME280;59836;52.132;5.442;2022-07-24T05:02:47;101877.38;;;16.11;84.56
71966;BME280;59836;52.132;5.442;2022-07-24T05:05:13;101876.78;;;16.14;84.58
71966;BME280;59836;52.132;5.442;2022-07-24T05:07:40;101872.94;;;16.20;84.80
71966;BME280;59836;52.132;5.442;2022-07-24T05:10:07;101878.13;;;16.22;84.90
71966;BME280;59836;52.132;5.442;2022-07-24T05:12:34;101876.19;;;16.28;85.03
71966;BME280;59836;52.132;5.442;2022-07-24T05:15:00;101872.56;;;16.32;84.81
71966;BME280;59836;52.132;5.442;2022-07-24T05:17:27;101876.13;;;16.38;84.74
71966;BME280;59836;52.132;5.442;2022-07-24T05:19:53;101878.78;;;16.43;85.01
71966;BME280;59836;52.132;5.442;2022-07-24T05:22:19;101879.59;;;16.49;84.84
71966;BME280;59836;52.132;5.442;2022-07-24T05:24:46;101872.69;;;16.57;84.74
71966;BME280;59836;52.132;5.442;2022-07-24T05:27:12;101877.59;;;16.60;84.77
71966;BME280;59836;52.132;5.442;2022-07-24T05:29:39;101874.81;;;16.65;84.74
71966;BME280;59836;52.132;5.442;2022-07-24T05:32:07;101879.16;;;16.71;84.46
71966;BME280;59836;52.132;5.442;2022-07-24T05:34:34;101884.06;;;16.74;84.70
71966;BME280;59836;52.132;5.442;2022-07-24T05:37:06;101881.28;;;16.79;84.18
71966;BME280;59836;52.132;5.442;2022-07-24T05:39:32;101896.03;;;16.83;84.43
71966;BME280;59836;52.132;5.442;2022-07-24T05:41:59;101896.31;;;16.87;84.50
71966;BME280;59836;52.132;5.442;2022-07-24T05:44:25;101893.00;;;16.90;84.78
71966;BME280;59836;52.132;5.442;2022-07-24T05:46:51;101886.63;;;16.95;84.46
71966;BME280;59836;52.132;5.442;2022-07-24T05:49:18;101888.25;;;17.01;84.67
71966;BME280;59836;52.132;5.442;2022-07-24T05:51:44;101883.84;;;17.05;84.74
71966;BME280;59836;52.132;5.442;2022-07-24T05:54:11;101888.97;;;17.12;84.19
71966;BME280;59836;52.132;5.442;2022-07-24T05:56:39;101881.22;;;17.19;84.47
71966;BME280;59836;52.132;5.442;2022-07-24T05:59:05;101883.66;;;17.26;83.62
71966;BME280;59836;52.132;5.442;2022-07-24T06:01:33;101885.75;;;17.34;84.12
71966;BME280;59836;52.132;5.442;2022-07-24T06:03:59;101891.19;;;17.39;83.44
71966;BME280;59836;52.132;5.442;2022-07-24T06:06:26;101894.41;;;17.47;84.09
71966;BME280;59836;52.132;5.442;2022-07-24T06:08:52;101898.69;;;17.53;83.39
71966;BME280;59836;52.132;5.442;2022-07-24T06:11:18;101908.50;;;17.59;83.57
71966;BME280;59836;52.132;5.442;2022-07-24T06:13:47;101901.84;;;17.65;83.44
71966;BME280;59836;52.132;5.442;2022-07-24T06:16:13;101905.38;;;17.71;82.76
71966;BME280;59836;52.132;5.442;2022-07-24T06:18:40;101905.31;;;17.76;82.73
71966;BME280;59836;52.132;5.442;2022-07-24T06:21:07;101904.38;;;17.86;82.67
71966;BME280;59836;52.132;5.442;2022-07-24T06:23:33;101896.06;;;17.91;81.74
71966;BME280;59836;52.132;5.442;2022-07-24T06:26:00;101897.13;;;17.95;82.34
71966;BME280;59836;52.132;5.442;2022-07-24T06:28:26;101897.63;;;17.97;81.83
71966;BME280;59836;52.132;5.442;2022-07-24T06:30:53;101891.28;;;18.02;81.70
71966;BME280;59836;52.132;5.442;2022-07-24T06:33:21;101892.03;;;18.08;81.40
71966;BME280;59836;52.132;5.442;2022-07-24T06:35:47;101883.75;;;18.13;81.06
71966;BME280;59836;52.132;5.442;2022-07-24T06:38:14;101885.59;;;18.18;81.91
71966;BME280;59836;52.132;5.442;2022-07-24T06:40:42;101884.72;;;18.22;80.38
71966;BME280;59836;52.132;5.442;2022-07-24T06:43:09;101881.91;;;18.27;81.09
71966;BME280;59836;52.132;5.442;2022-07-24T06:45:35;101887.31;;;18.33;80.85
71966;BME280;59836;52.132;5.442;2022-07-24T06:48:03;101885.31;;;18.38;80.10
71966;BME280;59836;52.132;5.442;2022-07-24T06:50:29;101888.50;;;18.46;80.89
71966;BME280;59836;52.132;5.442;2022-07-24T06:52:56;101893.63;;;18.52;81.46
71966;BME280;59836;52.132;5.442;2022-07-24T06:55:22;101898.50;;;18.55;81.48
71966;BME280;59836;52.132;5.442;2022-07-24T06:57:49;101890.19;;;18.61;79.84
71966;BME280;59836;52.132;5.442;2022-07-24T07:00:15;101886.22;;;18.67;79.93
71966;BME280;59836;52.132;5.442;2022-07-24T07:02:42;101886.66;;;18.74;79.24
71966;BME280;59836;52.132;5.442;2022-07-24T07:05:09;101891.19;;;18.84;78.29
71966;BME280;59836;52.132;5.442;2022-07-24T07:07:37;101893.53;;;18.91;79.24
71966;BME280;59836;52.132;5.442;2022-07-24T07:10:05;101890.72;;;18.96;78.70
71966;BME280;59836;52.132;5.442;2022-07-24T07:12:32;101886.19;;;19.05;79.26
71966;BME280;59836;52.132;5.442;2022-07-24T07:15:06;101893.75;;;19.13;78.35
71966;BME280;59836;52.132;5.442;2022-07-24T07:17:32;101893.56;;;19.24;76.45
71966;BME280;59836;52.132;5.442;2022-07-24T07:19:59;101893.38;;;19.34;78.65
71966;BME280;59836;52.132;5.442;2022-07-24T07:22:25;101888.81;;;19.43;78.94
71966;BME280;59836;52.132;5.442;2022-07-24T07:24:52;101893.28;;;19.53;79.34
71966;BME280;59836;52.132;5.442;2022-07-24T07:27:18;101893.19;;;19.58;78.51
71966;BME280;59836;52.132;5.442;2022-07-24T07:29:45;101890.22;;;19.69;78.03
71966;BME280;59836;52.132;5.442;2022-07-24T07:32:11;101894.19;;;19.76;76.50
71966;BME280;59836;52.132;5.442;2022-07-24T07:34:37;101892.34;;;19.86;77.19
71966;BME280;59836;52.132;5.442;2022-07-24T07:37:04;101899.13;;;19.94;76.54
71966;BME280;59836;52.132;5.442;2022-07-24T07:39:30;101892.56;;;20.03;75.18
71966;BME280;59836;52.132;5.442;2022-07-24T07:41:57;101887.44;;;20.11;74.40
71966;BME280;59836;52.132;5.442;2022-07-24T07:44:23;101883.97;;;20.19;73.93
71966;BME280;59836;52.132;5.442;2022-07-24T07:46:50;101880.75;;;20.26;73.69
71966;BME280;59836;52.132;5.442;2022-07-24T07:49:16;101876.78;;;20.32;73.20
71966;BME280;59836;52.132;5.442;2022-07-24T07:51:43;101885.94;;;20.41;73.78
71966;BME280;59836;52.132;5.442;2022-07-24T07:54:14;101881.63;;;20.49;73.59
71966;BME280;59836;52.132;5.442;2022-07-24T07:56:41;101888.94;;;20.54;73.45
71966;BME280;59836;52.132;5.442;2022-07-24T07:59:07;101891.28;;;20.60;71.23
71966;BME280;59836;52.132;5.442;2022-07-24T08:01:35;101884.19;;;20.68;72.90
71966;BME280;59836;52.132;5.442;2022-07-24T08:04:02;101885.38;;;20.76;71.93
71966;BME280;59836;52.132;5.442;2022-07-24T08:06:29;101891.91;;;20.80;72.79
71966;BME280;59836;52.132;5.442;2022-07-24T08:08:56;101894.16;;;20.78;72.17
71966;BME280;59836;52.132;5.442;2022-07-24T08:11:23;101900.88;;;20.86;72.06
71966;BME280;59836;52.132;5.442;2022-07-24T08:13:49;101885.50;;;20.93;71.26
71966;BME280;59836;52.132;5.442;2022-07-24T08:16:15;101879.88;;;20.99;72.16
71966;BME280;59836;52.132;5.442;2022-07-24T08:18:42;101886.75;;;21.10;69.99
71966;BME280;59836;52.132;5.442;2022-07-24T08:21:13;101884.53;;;21.21;71.11
71966;BME280;59836;52.132;5.442;2022-07-24T08:23:41;101880.00;;;21.25;69.33
71966;BME280;59836;52.132;5.442;2022-07-24T08:26:07;101877.28;;;21.34;70.54
71966;BME280;59836;52.132;5.442;2022-07-24T08:28:34;101881.69;;;21.44;69.14
71966;BME280;59836;52.132;5.442;2022-07-24T08:31:00;101875.09;;;21.53;71.02
71966;BME280;59836;52.132;5.442;2022-07-24T08:33:27;101886.78;;;21.59;67.73
71966;BME280;59836;52.132;5.442;2022-07-24T08:35:53;101882.59;;;21.62;68.79
71966;BME280;59836;52.132;5.442;2022-07-24T08:38:19;101877.25;;;21.65;67.48
71966;BME280;59836;52.132;5.442;2022-07-24T08:40:46;101876.31;;;21.70;68.61
71966;BME280;59836;52.132;5.442;2022-07-24T08:43:13;101872.25;;;21.76;67.43
71966;BME280;59836;52.132;5.442;2022-07-24T08:45:42;101872.94;;;21.82;68.92
71966;BME280;59836;52.132;5.442;2022-07-24T08:48:10;101882.50;;;21.85;67.85
71966;BME280;59836;52.132;5.442;2022-07-24T08:50:40;101877.16;;;21.88;67.35
71966;BME280;59836;52.132;5.442;2022-07-24T08:53:07;101870.66;;;21.93;67.22
71966;BME280;59836;52.132;5.442;2022-07-24T08:55:33;101867.75;;;21.98;66.39
71966;BME280;59836;52.132;5.442;2022-07-24T08:58:00;101863.19;;;22.02;67.64
71966;BME280;59836;52.132;5.442;2022-07-24T09:00:29;101865.66;;;22.12;65.91
71966;BME280;59836;52.132;5.442;2022-07-24T09:02:56;101855.75;;;22.20;64.70
71966;BME280;59836;52.132;5.442;2022-07-24T09:05:23;101863.53;;;22.27;66.60
71966;BME280;59836;52.132;5.442;2022-07-24T09:08:13;101871.03;;;22.35;66.41
71966;BME280;59836;52.132;5.442;2022-07-24T09:10:57;101867.78;;;22.51;66.33
71966;BME280;59836;52.132;5.442;2022-07-24T09:13:27;101871.19;;;22.56;67.26
71966;BME280;59836;52.132;5.442;2022-07-24T09:15:56;101872.34;;;22.64;65.70
71966;BME280;59836;52.132;5.442;2022-07-24T09:18:34;101869.88;;;22.72;65.28
71966;BME280;59836;52.132;5.442;2022-07-24T09:21:14;101865.16;;;22.72;64.45
71966;BME280;59836;52.132;5.442;2022-07-24T09:23:42;101859.78;;;22.76;63.19
71966;BME280;59836;52.132;5.442;2022-07-24T09:26:09;101853.41;;;22.84;64.06
71966;BME280;59836;52.132;5.442;2022-07-24T09:28:53;101862.19;;;22.86;63.64
71966;BME280;59836;52.132;5.442;2022-07-24T09:31:21;101853.88;;;22.95;63.34
71966;BME280;59836;52.132;5.442;2022-07-24T09:33:49;101858.72;;;23.07;62.98
71966;BME280;59836;52.132;5.442;2022-07-24T09:36:17;101849.09;;;23.13;60.63
71966;BME280;59836;52.132;5.442;2022-07-24T09:38:50;101851.69;;;23.18;61.92
71966;BME280;59836;52.132;5.442;2022-07-24T09:41:24;101853.50;;;23.23;63.41
71966;BME280;59836;52.132;5.442;2022-07-24T09:43:59;101851.81;;;23.31;63.40
71966;BME280;59836;52.132;5.442;2022-07-24T09:46:27;101846.09;;;23.36;62.73
71966;BME280;59836;52.132;5.442;2022-07-24T09:48:56;101850.78;;;23.44;62.50
71966;BME280;59836;52.132;5.442;2022-07-24T09:51:28;101852.34;;;23.54;61.11
71966;BME280;59836;52.132;5.442;2022-07-24T09:53:58;101850.22;;;23.59;60.15
71966;BME280;59836;52.132;5.442;2022-07-24T09:56:26;101849.00;;;23.69;60.07
71966;BME280;59836;52.132;5.442;2022-07-24T09:58:57;101845.25;;;23.74;60.40
71966;BME280;59836;52.132;5.442;2022-07-24T10:01:27;101850.09;;;23.77;60.16
71966;BME280;59836;52.132;5.442;2022-07-24T10:03:55;101850.38;;;23.84;58.92
71966;BME280;59836;52.132;5.442;2022-07-24T10:06:27;101847.06;;;23.91;57.73
71966;BME280;59836;52.132;5.442;2022-07-24T10:08:55;101840.50;;;23.96;57.07
71966;BME280;59836;52.132;5.442;2022-07-24T10:11:22;101845.41;;;23.99;60.10
71966;BME280;59836;52.132;5.442;2022-07-24T10:13:49;101838.03;;;24.03;60.71
71966;BME280;59836;52.132;5.442;2022-07-24T10:16:26;101837.84;;;24.08;59.50
71966;BME280;59836;52.132;5.442;2022-07-24T10:19:00;101845.28;;;24.16;59.17
71966;BME280;59836;52.132;5.442;2022-07-24T10:21:33;101839.19;;;24.23;57.85
71966;BME280;59836;52.132;5.442;2022-07-24T10:24:09;101835.53;;;24.31;57.10
71966;BME280;59836;52.132;5.442;2022-07-24T10:26:48;101830.00;;;24.31;55.90
71966;BME280;59836;52.132;5.442;2022-07-24T10:29:24;101828.50;;;24.34;56.22
71966;BME280;59836;52.132;5.442;2022-07-24T10:31:55;101831.06;;;24.39;56.93
71966;BME280;59836;52.132;5.442;2022-07-24T10:37:31;101820.22;;;24.46;56.65
71966;BME280;59836;52.132;5.442;2022-07-24T10:45:33;101819.34;;;24.67;55.05
71966;BME280;59836;52.132;5.442;2022-07-24T10:53:24;101811.78;;;24.76;54.58
71966;BME280;59836;52.132;5.442;2022-07-24T10:55:51;101816.63;;;24.80;55.07
71966;BME280;59836;52.132;5.442;2022-07-24T10:58:17;101822.19;;;24.92;53.65
71966;BME280;59836;52.132;5.442;2022-07-24T11:00:48;101806.25;;;25.01;53.57
71966;BME280;59836;52.132;5.442;2022-07-24T11:03:25;101808.78;;;25.06;53.37
71966;BME280;59836;52.132;5.442;2022-07-24T11:06:07;101809.03;;;25.14;54.11
71966;BME280;59836;52.132;5.442;2022-07-24T11:08:54;101807.06;;;25.27;52.83
71966;BME280;59836;52.132;5.442;2022-07-24T11:11:27;101803.69;;;25.33;53.10
71966;BME280;59836;52.132;5.442;2022-07-24T11:13:55;101801.84;;;25.38;52.84
71966;BME280;59836;52.132;5.442;2022-07-24T11:16:31;101795.59;;;25.41;52.93
71966;BME280;59836;52.132;5.442;2022-07-24T11:21:31;101790.75;;;25.50;52.49
71966;BME280;59836;52.132;5.442;2022-07-24T11:29:11;101787.59;;;25.64;53.71
71966;BME280;59836;52.132;5.442;2022-07-24T11:31:38;101793.28;;;25.68;54.29
71966;BME280;59836;52.132;5.442;2022-07-24T11:34:05;101783.06;;;25.72;54.43
71966;BME280;59836;52.132;5.442;2022-07-24T11:36:34;101776.81;;;25.75;53.04
71966;BME280;59836;52.132;5.442;2022-07-24T11:39:03;101791.03;;;25.73;50.85
71966;BME280;59836;52.132;5.442;2022-07-24T11:41:45;101780.50;;;25.79;52.88
71966;BME280;59836;52.132;5.442;2022-07-24T11:44:13;101787.44;;;25.85;52.56
71966;BME280;59836;52.132;5.442;2022-07-24T11:46:41;101773.31;;;25.90;51.34
71966;BME280;59836;52.132;5.442;2022-07-24T11:49:09;101771.53;;;25.98;52.85
71966;BME280;59836;52.132;5.442;2022-07-24T11:51:47;101776.13;;;26.06;52.89
71966;BME280;59836;52.132;5.442;2022-07-24T11:54:20;101779.44;;;26.12;50.99
71966;BME280;59836;52.132;5.442;2022-07-24T11:56:47;101761.75;;;26.17;52.78
71966;BME280;59836;52.132;5.442;2022-07-24T11:59:26;101759.06;;;26.20;52.96
71966;BME280;59836;52.132;5.442;2022-07-24T12:02:11;101759.63;;;26.26;52.45
71966;BME280;59836;52.132;5.442;2022-07-24T12:04:39;101762.47;;;26.30;51.89
71966;BME280;59836;52.132;5.442;2022-07-24T12:07:07;101755.50;;;26.36;52.71
71966;BME280;59836;52.132;5.442;2022-07-24T12:09:53;101752.91;;;26.43;52.29
71966;BME280;59836;52.132;5.442;2022-07-24T12:12:22;101749.84;;;26.48;50.87
71966;BME280;59836;52.132;5.442;2022-07-24T12:15:00;101751.94;;;26.51;51.96
71966;BME280;59836;52.132;5.442;2022-07-24T12:17:28;101756.06;;;26.58;52.63
71966;BME280;59836;52.132;5.442;2022-07-24T12:19:57;101747.44;;;26.63;51.76
71966;BME280;59836;52.132;5.442;2022-07-24T12:22:26;101747.91;;;26.65;51.23
71966;BME280;59836;52.132;5.442;2022-07-24T12:24:54;101739.72;;;26.72;51.60
71966;BME280;59836;52.132;5.442;2022-07-24T12:27:35;101735.06;;;26.76;50.13
71966;BME280;59836;52.132;5.442;2022-07-24T12:30:04;101733.16;;;26.80;50.19
71966;BME280;59836;52.132;5.442;2022-07-24T12:32:55;101734.53;;;26.87;50.94
71966;BME280;59836;52.132;5.442;2022-07-24T12:35:23;101736.34;;;26.95;51.15
71966;BME280;59836;52.132;5.442;2022-07-24T12:37:51;101722.13;;;27.00;50.39
71966;BME280;59836;52.132;5.442;2022-07-24T12:40:30;101723.75;;;27.01;49.07
71966;BME280;59836;52.132;5.442;2022-07-24T12:43:03;101718.53;;;27.00;50.13
71966;BME280;59836;52.132;5.442;2022-07-24T12:45:29;101720.97;;;27.01;50.31
71966;BME280;59836;52.132;5.442;2022-07-24T12:50:38;101707.13;;;27.05;51.22
71966;BME280;59836;52.132;5.442;2022-07-24T12:53:22;101708.06;;;27.13;52.25
71966;BME280;59836;52.132;5.442;2022-07-24T12:56:03;101708.16;;;27.16;51.84
71966;BME280;59836;52.132;5.442;2022-07-24T13:01:13;101692.78;;;27.22;51.66
71966;BME280;59836;52.132;5.442;2022-07-24T13:03:50;101686.56;;;27.29;50.21
71966;BME280;59836;52.132;5.442;2022-07-24T13:06:17;101691.84;;;27.34;50.99
71966;BME280;59836;52.132;5.442;2022-07-24T13:08:43;101687.88;;;27.35;49.57
71966;BME280;59836;52.132;5.442;2022-07-24T13:11:09;101695.16;;;27.40;50.06
71966;BME280;59836;52.132;5.442;2022-07-24T13:13:36;101690.03;;;27.42;49.66
71966;BME280;59836;52.132;5.442;2022-07-24T13:16:02;101680.13;;;27.45;50.02
71966;BME280;59836;52.132;5.442;2022-07-24T13:18:29;101685.44;;;27.50;49.32
71966;BME280;59836;52.132;5.442;2022-07-24T13:20:55;101672.38;;;27.54;50.12
71966;BME280;59836;52.132;5.442;2022-07-24T13:23:22;101680.44;;;27.59;50.34